sensor_id;sensor_type;location;lat;lon;timestamp;temperature;humidity
19261;DHT22;75986;48.588;9.216;2024-03-17T00:00:04;20.70;99.90
19261;DHT22;75986;48.588;9.216;2024-03-17T00:02:39;20.70;99.90
19261;DHT22;75986;48.588;9.216;2024-03-17T00:05:07;20.80;99.90
19261;DHT22;75986;48.588;9.216;2024-03-17T00:07:37;20.70;99.90
19261;DHT22;75986;48.588;9.216;2024-03-17T00:10:05;20.70;99.90
19261;DHT22;75986;48.588;9.216;2024-03-17T00:12:36;20.70;99.90
19261;DHT22;75986;48.588;9.216;2024-03-17T00:15:04;20.70;99.90
19261;DHT22;75986;48.588;9.216;2024-03-17T00:17:34;20.70;99.90
19261;DHT22;75986;48.588;9.216;2024-03-17T00:20:05;20.70;99.90
19261;DHT22;75986;48.588;9.216;2024-03-17T00:22:46;20.70;99.90
19261;DHT22;75986;48.588;9.216;2024-03-17T00:25:13;20.70;99.90
19261;DHT22;75986;48.588;9.216;2024-03-17T00:27:44;20.70;99.90
19261;DHT22;75986;48.588;9.216;2024-03-17T00:30:12;20.70;99.90
19261;DHT22;75986;48.588;9.216;2024-03-17T00:32:42;20.70;99.90
19261;DHT22;75986;48.588;9.216;2024-03-17T00:35:12;20.70;99.90
19261;DHT22;75986;48.588;9.216;2024-03-17T00:37:47;20.70;99.90
19261;DHT22;75986;48.588;9.216;2024-03-17T00:40:17;20.70;99.90
19261;DHT22;75986;48.588;9.216;2024-03-17T00:42:43;20.70;99.90
19261;DHT22;75986;48.588;9.216;2024-03-17T00:45:15;20.70;99.90
19261;DHT22;75986;48.588;9.216;2024-03-17T00:47:42;20.70;99.90
19261;DHT22;75986;48.588;9.216;2024-03-17T00:50:14;20.70;99.90
19261;DHT22;75986;48.588;9.216;2024-03-17T00:52:41;20.70;99.90
19261;DHT22;75986;48.588;9.216;2024-03-17T00:55:10;20.70;99.90
19261;DHT22;75986;48.588;9.216;2024-03-17T00:57:37;20.70;99.90
19261;DHT22;75986;48.588;9.216;2024-03-17T01:00:08;20.70;99.90
19261;DHT22;75986;48.588;9.216;2024-03-17T01:02:37;20.80;99.90
19261;DHT22;75986;48.588;9.216;2024-03-17T01:05:08;20.70;99.90
19261;DHT22;75986;48.588;9.216;2024-03-17T01:07:38;20.70;99.90
19261;DHT22;75986;48.588;9.216;2024-03-17T01:10:08;20.70;99.90
19261;DHT22;75986;48.588;9.216;2024-03-17T01:12:35;20.70;99.90
19261;DHT22;75986;48.588;9.216;2024-03-17T01:15:06;20.70;99.90
19261;DHT22;75986;48.588;9.216;2024-03-17T01:17:33;20.70;99.90
19261;DHT22;75986;48.588;9.216;2024-03-17T01:20:03;20.70;99.90
19261;DHT22;75986;48.588;9.216;2024-03-17T01:22:30;20.70;99.90
19261;DHT22;75986;48.588;9.216;2024-03-17T01:25:02;20.70;99.90
19261;DHT22;75986;48.588;9.216;2024-03-17T01:27:29;20.70;99.90
19261;DHT22;75986;48.588;9.216;2024-03-17T01:29:58;20.70;99.90
19261;DHT22;75986;48.588;9.216;2024-03-17T01:32:25;20.70;99.90
19261;DHT22;75986;48.588;9.216;2024-03-17T01:34:55;20.70;99.90
19261;DHT22;75986;48.588;9.216;2024-03-17T01:37:22;20.70;99.90
19261;DHT22;75986;48.588;9.216;2024-03-17T01:39:52;20.70;99.90
19261;DHT22;75986;48.588;9.216;2024-03-17T01:42:21;20.70;99.90
19261;DHT22;75986;48.588;9.216;2024-03-17T01:44:51;20.70;99.90
19261;DHT22;75986;48.588;9.216;2024-03-17T01:47:18;20.70;99.90
19261;DHT22;75986;48.588;9.216;2024-03-17T01:49:49;20.70;99.90
19261;DHT22;75986;48.588;9.216;2024-03-17T01:52:16;20.70;99.90
19261;DHT22;75986;48.588;9.216;2024-03-17T01:54:46;20.70;99.90
19261;DHT22;75986;48.588;9.216;2024-03-17T01:57:14;20.70;99.90
19261;DHT22;75986;48.588;9.216;2024-03-17T01:59:46;20.70;99.90
19261;DHT22;75986;48.588;9.216;2024-03-17T02:02:13;20.70;99.90
19261;DHT22;75986;48.588;9.216;2024-03-17T02:04:43;20.70;99.90
19261;DHT22;75986;48.588;9.216;2024-03-17T02:07:10;20.70;99.90
19261;DHT22;75986;48.588;9.216;2024-03-17T02:09:40;20.70;99.90
19261;DHT22;75986;48.588;9.216;2024-03-17T02:12:08;20.70;99.90
19261;DHT22;75986;48.588;9.216;2024-03-17T02:14:38;20.70;99.90
19261;DHT22;75986;48.588;9.216;2024-03-17T02:17:08;20.70;99.90
19261;DHT22;75986;48.588;9.216;2024-03-17T02:19:37;20.70;99.90
19261;DHT22;75986;48.588;9.216;2024-03-17T02:22:12;20.70;99.90
19261;DHT22;75986;48.588;9.216;2024-03-17T02:24:43;20.70;99.90
19261;DHT22;75986;48.588;9.216;2024-03-17T02:27:10;20.70;99.90
19261;DHT22;75986;48.588;9.216;2024-03-17T02:29:42;20.70;99.90
19261;DHT22;75986;48.588;9.216;2024-03-17T02:32:10;20.70;99.90
19261;DHT22;75986;48.588;9.216;2024-03-17T02:34:39;20.70;99.90
19261;DHT22;75986;48.588;9.216;2024-03-17T02:37:10;20.70;99.90
19261;DHT22;75986;48.588;9.216;2024-03-17T02:39:39;20.70;99.90
19261;DHT22;75986;48.588;9.216;2024-03-17T02:42:08;20.70;99.90
19261;DHT22;75986;48.588;9.216;2024-03-17T02:44:38;20.70;99.90
19261;DHT22;75986;48.588;9.216;2024-03-17T02:47:06;20.70;99.90
19261;DHT22;75986;48.588;9.216;2024-03-17T02:49:41;20.70;99.90
19261;DHT22;75986;48.588;9.216;2024-03-17T02:52:13;20.70;99.90
19261;DHT22;75986;48.588;9.216;2024-03-17T02:54:42;20.70;99.90
19261;DHT22;75986;48.588;9.216;2024-03-17T02:57:12;20.70;99.90
19261;DHT22;75986;48.588;9.216;2024-03-17T02:59:42;20.70;99.90
19261;DHT22;75986;48.588;9.216;2024-03-17T03:02:12;20.70;99.90
19261;DHT22;75986;48.588;9.216;2024-03-17T03:04:42;20.70;99.90
19261;DHT22;75986;48.588;9.216;2024-03-17T03:07:14;20.70;99.90
19261;DHT22;75986;48.588;9.216;2024-03-17T03:09:44;20.70;99.90
19261;DHT22;75986;48.588;9.216;2024-03-17T03:12:13;20.70;99.90
19261;DHT22;75986;48.588;9.216;2024-03-17T03:14:43;20.70;99.90
19261;DHT22;75986;48.588;9.216;2024-03-17T03:17:13;20.70;99.90
19261;DHT22;75986;48.588;9.216;2024-03-17T03:19:42;20.70;99.90
19261;DHT22;75986;48.588;9.216;2024-03-17T03:22:14;20.70;99.90
19261;DHT22;75986;48.588;9.216;2024-03-17T03:24:44;20.80;99.90
19261;DHT22;75986;48.588;9.216;2024-03-17T03:27:14;20.80;99.90
19261;DHT22;75986;48.588;9.216;2024-03-17T03:29:44;20.80;99.90
19261;DHT22;75986;48.588;9.216;2024-03-17T03:32:13;20.80;99.90
19261;DHT22;75986;48.588;9.216;2024-03-17T03:34:44;20.80;99.90
19261;DHT22;75986;48.588;9.216;2024-03-17T03:37:16;20.80;99.90
19261;DHT22;75986;48.588;9.216;2024-03-17T03:39:45;20.80;99.90
19261;DHT22;75986;48.588;9.216;2024-03-17T03:42:15;20.80;99.90
19261;DHT22;75986;48.588;9.216;2024-03-17T03:44:46;20.80;99.90
19261;DHT22;75986;48.588;9.216;2024-03-17T03:47:15;20.80;99.90
19261;DHT22;75986;48.588;9.216;2024-03-17T03:49:45;20.80;99.90
19261;DHT22;75986;48.588;9.216;2024-03-17T03:52:17;20.80;99.90
19261;DHT22;75986;48.588;9.216;2024-03-17T03:54:49;20.80;99.90
19261;DHT22;75986;48.588;9.216;2024-03-17T03:57:20;20.80;99.90
19261;DHT22;75986;48.588;9.216;2024-03-17T03:59:52;20.80;99.90
19261;DHT22;75986;48.588;9.216;2024-03-17T04:02:22;20.80;99.90
19261;DHT22;75986;48.588;9.216;2024-03-17T04:04:54;20.80;99.90
19261;DHT22;75986;48.588;9.216;2024-03-17T04:07:26;20.80;99.90
19261;DHT22;75986;48.588;9.216;2024-03-17T04:09:55;20.80;99.90
19261;DHT22;75986;48.588;9.216;2024-03-17T04:12:25;20.70;99.90
19261;DHT22;75986;48.588;9.216;2024-03-17T04:14:57;20.80;99.90
19261;DHT22;75986;48.588;9.216;2024-03-17T04:17:28;20.80;99.90
19261;DHT22;75986;48.588;9.216;2024-03-17T04:19:57;20.80;99.90
19261;DHT22;75986;48.588;9.216;2024-03-17T04:22:30;20.80;99.90
19261;DHT22;75986;48.588;9.216;2024-03-17T04:25:00;20.80;99.90
19261;DHT22;75986;48.588;9.216;2024-03-17T04:27:31;20.80;99.90
19261;DHT22;75986;48.588;9.216;2024-03-17T04:30:01;20.80;99.90
19261;DHT22;75986;48.588;9.216;2024-03-17T04:32:33;20.80;99.90
19261;DHT22;75986;48.588;9.216;2024-03-17T04:35:03;20.80;99.90
19261;DHT22;75986;48.588;9.216;2024-03-17T04:37:36;20.80;99.90
19261;DHT22;75986;48.588;9.216;2024-03-17T04:40:08;20.80;99.90
19261;DHT22;75986;48.588;9.216;2024-03-17T04:42:38;20.80;99.90
19261;DHT22;75986;48.588;9.216;2024-03-17T04:45:08;20.80;99.90
19261;DHT22;75986;48.588;9.216;2024-03-17T04:47:39;20.80;99.90
19261;DHT22;75986;48.588;9.216;2024-03-17T04:50:09;20.80;99.90
19261;DHT22;75986;48.588;9.216;2024-03-17T04:52:42;20.80;99.90
19261;DHT22;75986;48.588;9.216;2024-03-17T04:55:12;20.80;99.90
19261;DHT22;75986;48.588;9.216;2024-03-17T04:57:43;20.80;99.90
19261;DHT22;75986;48.588;9.216;2024-03-17T05:00:13;20.80;99.90
19261;DHT22;75986;48.588;9.216;2024-03-17T05:02:44;20.80;99.90
19261;DHT22;75986;48.588;9.216;2024-03-17T05:05:11;20.80;99.90
19261;DHT22;75986;48.588;9.216;2024-03-17T05:07:43;20.80;99.90
19261;DHT22;75986;48.588;9.216;2024-03-17T05:10:13;20.80;99.90
19261;DHT22;75986;48.588;9.216;2024-03-17T05:12:45;20.80;99.90
19261;DHT22;75986;48.588;9.216;2024-03-17T05:15:14;20.80;99.90
19261;DHT22;75986;48.588;9.216;2024-03-17T05:17:44;20.80;99.90
19261;DHT22;75986;48.588;9.216;2024-03-17T05:20:13;20.80;99.90
19261;DHT22;75986;48.588;9.216;2024-03-17T05:22:46;20.80;99.90
19261;DHT22;75986;48.588;9.216;2024-03-17T05:25:16;20.80;99.90
19261;DHT22;75986;48.588;9.216;2024-03-17T05:27:45;20.80;99.90
19261;DHT22;75986;48.588;9.216;2024-03-17T05:30:15;20.90;99.90
19261;DHT22;75986;48.588;9.216;2024-03-17T05:32:45;20.90;99.90
19261;DHT22;75986;48.588;9.216;2024-03-17T05:35:15;20.90;99.90
19261;DHT22;75986;48.588;9.216;2024-03-17T05:37:49;20.80;99.90
19261;DHT22;75986;48.588;9.216;2024-03-17T05:40:18;20.90;99.90
19261;DHT22;75986;48.588;9.216;2024-03-17T05:42:48;20.90;99.90
19261;DHT22;75986;48.588;9.216;2024-03-17T05:45:18;20.90;99.90
19261;DHT22;75986;48.588;9.216;2024-03-17T05:47:49;20.90;99.90
19261;DHT22;75986;48.588;9.216;2024-03-17T05:50:19;20.80;99.90
19261;DHT22;75986;48.588;9.216;2024-03-17T05:52:51;20.80;99.90
19261;DHT22;75986;48.588;9.216;2024-03-17T05:55:21;20.80;99.90
19261;DHT22;75986;48.588;9.216;2024-03-17T05:57:50;20.90;99.90
19261;DHT22;75986;48.588;9.216;2024-03-17T06:00:20;20.90;99.90
19261;DHT22;75986;48.588;9.216;2024-03-17T06:02:50;20.90;99.90
19261;DHT22;75986;48.588;9.216;2024-03-17T06:05:19;20.80;99.90
19261;DHT22;75986;48.588;9.216;2024-03-17T06:07:52;20.80;99.90
19261;DHT22;75986;48.588;9.216;2024-03-17T06:10:21;20.90;99.90
19261;DHT22;75986;48.588;9.216;2024-03-17T06:12:51;20.90;99.90
19261;DHT22;75986;48.588;9.216;2024-03-17T06:15:20;20.90;99.90
19261;DHT22;75986;48.588;9.216;2024-03-17T06:17:50;20.80;99.90
19261;DHT22;75986;48.588;9.216;2024-03-17T06:20:20;20.90;99.90
19261;DHT22;75986;48.588;9.216;2024-03-17T06:22:56;20.90;99.90
19261;DHT22;75986;48.588;9.216;2024-03-17T06:25:25;20.80;99.90
19261;DHT22;75986;48.588;9.216;2024-03-17T06:27:55;20.90;99.90
19261;DHT22;75986;48.588;9.216;2024-03-17T06:30:28;20.80;99.90
19261;DHT22;75986;48.588;9.216;2024-03-17T06:32:59;20.90;99.90
19261;DHT22;75986;48.588;9.216;2024-03-17T06:35:28;20.90;99.90
19261;DHT22;75986;48.588;9.216;2024-03-17T06:38:02;20.90;99.90
19261;DHT22;75986;48.588;9.216;2024-03-17T06:40:35;20.90;99.90
19261;DHT22;75986;48.588;9.216;2024-03-17T06:43:05;20.90;99.90
19261;DHT22;75986;48.588;9.216;2024-03-17T06:45:35;20.90;99.90
19261;DHT22;75986;48.588;9.216;2024-03-17T06:48:05;20.90;99.90
19261;DHT22;75986;48.588;9.216;2024-03-17T06:50:40;20.90;99.90
19261;DHT22;75986;48.588;9.216;2024-03-17T06:53:13;20.90;99.90
19261;DHT22;75986;48.588;9.216;2024-03-17T06:55:42;20.90;99.90
19261;DHT22;75986;48.588;9.216;2024-03-17T06:58:12;20.90;99.90
19261;DHT22;75986;48.588;9.216;2024-03-17T07:00:42;20.90;99.90
19261;DHT22;75986;48.588;9.216;2024-03-17T07:03:12;20.90;99.90
19261;DHT22;75986;48.588;9.216;2024-03-17T07:05:47;21.00;99.90
19261;DHT22;75986;48.588;9.216;2024-03-17T07:08:23;21.00;99.90
19261;DHT22;75986;48.588;9.216;2024-03-17T07:10:57;20.90;99.90
19261;DHT22;75986;48.588;9.216;2024-03-17T07:13:28;20.90;99.90
19261;DHT22;75986;48.588;9.216;2024-03-17T07:15:58;20.90;99.90
19261;DHT22;75986;48.588;9.216;2024-03-17T07:18:29;21.00;99.90
19261;DHT22;75986;48.588;9.216;2024-03-17T07:20:59;21.00;99.90
19261;DHT22;75986;48.588;9.216;2024-03-17T07:23:32;20.90;99.90
19261;DHT22;75986;48.588;9.216;2024-03-17T07:26:02;20.90;99.90
19261;DHT22;75986;48.588;9.216;2024-03-17T07:28:32;20.90;99.90
19261;DHT22;75986;48.588;9.216;2024-03-17T07:31:05;21.00;99.90
19261;DHT22;75986;48.588;9.216;2024-03-17T07:33:35;21.00;99.90
19261;DHT22;75986;48.588;9.216;2024-03-17T07:36:04;21.00;99.90
19261;DHT22;75986;48.588;9.216;2024-03-17T07:38:37;21.00;99.90
19261;DHT22;75986;48.588;9.216;2024-03-17T07:41:07;21.00;99.90
19261;DHT22;75986;48.588;9.216;2024-03-17T07:43:38;21.00;99.90
19261;DHT22;75986;48.588;9.216;2024-03-17T07:46:08;21.00;99.90
19261;DHT22;75986;48.588;9.216;2024-03-17T07:48:39;21.00;99.90
19261;DHT22;75986;48.588;9.216;2024-03-17T07:51:09;21.00;99.90
19261;DHT22;75986;48.588;9.216;2024-03-17T07:53:43;21.00;99.90
19261;DHT22;75986;48.588;9.216;2024-03-17T07:56:14;21.00;99.90
19261;DHT22;75986;48.588;9.216;2024-03-17T07:58:44;21.00;99.90
19261;DHT22;75986;48.588;9.216;2024-03-17T08:01:15;21.00;99.90
19261;DHT22;75986;48.588;9.216;2024-03-17T08:03:46;21.00;99.90
19261;DHT22;75986;48.588;9.216;2024-03-17T08:06:20;21.00;99.90
19261;DHT22;75986;48.588;9.216;2024-03-17T08:08:52;21.00;99.90
19261;DHT22;75986;48.588;9.216;2024-03-17T08:11:23;21.00;99.90
19261;DHT22;75986;48.588;9.216;2024-03-17T08:13:53;21.00;99.90
19261;DHT22;75986;48.588;9.216;2024-03-17T08:16:23;21.00;99.90
19261;DHT22;75986;48.588;9.216;2024-03-17T08:18:53;21.00;99.90
19261;DHT22;75986;48.588;9.216;2024-03-17T08:21:22;21.00;99.90
19261;DHT22;75986;48.588;9.216;2024-03-17T08:23:54;21.10;99.90
19261;DHT22;75986;48.588;9.216;2024-03-17T08:26:23;21.10;99.90
19261;DHT22;75986;48.588;9.216;2024-03-17T08:28:52;21.10;99.90
19261;DHT22;75986;48.588;9.216;2024-03-17T08:31:22;21.10;99.90
19261;DHT22;75986;48.588;9.216;2024-03-17T08:33:51;21.20;99.90
19261;DHT22;75986;48.588;9.216;2024-03-17T08:36:20;21.20;99.90
19261;DHT22;75986;48.588;9.216;2024-03-17T08:38:50;21.20;99.90
19261;DHT22;75986;48.588;9.216;2024-03-17T08:41:23;21.20;99.90
19261;DHT22;75986;48.588;9.216;2024-03-17T08:43:52;21.20;99.90
19261;DHT22;75986;48.588;9.216;2024-03-17T08:46:21;21.20;99.90
19261;DHT22;75986;48.588;9.216;2024-03-17T08:48:51;21.20;99.90
19261;DHT22;75986;48.588;9.216;2024-03-17T08:51:20;21.20;99.90
19261;DHT22;75986;48.588;9.216;2024-03-17T08:53:49;21.20;99.90
19261;DHT22;75986;48.588;9.216;2024-03-17T08:56:19;21.20;99.90
19261;DHT22;75986;48.588;9.216;2024-03-17T08:58:52;21.20;99.90
19261;DHT22;75986;48.588;9.216;2024-03-17T09:01:21;21.20;99.90
19261;DHT22;75986;48.588;9.216;2024-03-17T09:03:50;21.20;99.90
19261;DHT22;75986;48.588;9.216;2024-03-17T09:06:23;21.20;99.90
19261;DHT22;75986;48.588;9.216;2024-03-17T09:08:56;21.20;99.90
19261;DHT22;75986;48.588;9.216;2024-03-17T09:11:25;21.30;99.90
19261;DHT22;75986;48.588;9.216;2024-03-17T09:13:57;21.20;99.90
19261;DHT22;75986;48.588;9.216;2024-03-17T09:16:27;21.20;99.90
19261;DHT22;75986;48.588;9.216;2024-03-17T09:18:57;21.20;99.90
19261;DHT22;75986;48.588;9.216;2024-03-17T09:21:26;21.30;99.90
19261;DHT22;75986;48.588;9.216;2024-03-17T09:23:55;21.30;99.90
19261;DHT22;75986;48.588;9.216;2024-03-17T09:26:26;21.30;99.90
19261;DHT22;75986;48.588;9.216;2024-03-17T09:28:57;21.30;99.90
19261;DHT22;75986;48.588;9.216;2024-03-17T09:31:27;21.30;99.90
19261;DHT22;75986;48.588;9.216;2024-03-17T09:33:56;21.30;99.90
19261;DHT22;75986;48.588;9.216;2024-03-17T09:36:25;21.30;99.90
19261;DHT22;75986;48.588;9.216;2024-03-17T09:38:55;21.30;99.90
19261;DHT22;75986;48.588;9.216;2024-03-17T09:41:25;21.30;99.90
19261;DHT22;75986;48.588;9.216;2024-03-17T09:43:58;21.30;99.90
19261;DHT22;75986;48.588;9.216;2024-03-17T09:46:27;21.30;99.90
19261;DHT22;75986;48.588;9.216;2024-03-17T09:48:58;21.30;99.90
19261;DHT22;75986;48.588;9.216;2024-03-17T09:51:27;21.30;99.90
19261;DHT22;75986;48.588;9.216;2024-03-17T09:53:58;21.30;99.90
19261;DHT22;75986;48.588;9.216;2024-03-17T09:56:27;21.30;99.90
19261;DHT22;75986;48.588;9.216;2024-03-17T09:58:59;21.30;99.90
19261;DHT22;75986;48.588;9.216;2024-03-17T10:01:28;21.20;99.90
19261;DHT22;75986;48.588;9.216;2024-03-17T10:03:57;21.20;99.90
19261;DHT22;75986;48.588;9.216;2024-03-17T10:06:31;21.20;99.90
19261;DHT22;75986;48.588;9.216;2024-03-17T10:09:01;21.20;99.90
19261;DHT22;75986;48.588;9.216;2024-03-17T10:11:36;21.20;99.90
19261;DHT22;75986;48.588;9.216;2024-03-17T10:14:08;21.20;99.90
19261;DHT22;75986;48.588;9.216;2024-03-17T10:16:38;21.20;99.90
19261;DHT22;75986;48.588;9.216;2024-03-17T10:19:12;21.20;99.90
19261;DHT22;75986;48.588;9.216;2024-03-17T10:21:42;21.20;99.90
19261;DHT22;75986;48.588;9.216;2024-03-17T10:24:19;21.20;99.90
19261;DHT22;75986;48.588;9.216;2024-03-17T10:26:50;21.20;99.70
19261;DHT22;75986;48.588;9.216;2024-03-17T10:29:26;21.20;99.60
19261;DHT22;75986;48.588;9.216;2024-03-17T10:31:58;21.20;99.50
19261;DHT22;75986;48.588;9.216;2024-03-17T10:34:29;21.20;99.40
19261;DHT22;75986;48.588;9.216;2024-03-17T10:37:07;21.20;99.30
19261;DHT22;75986;48.588;9.216;2024-03-17T10:39:40;21.20;99.30
19261;DHT22;75986;48.588;9.216;2024-03-17T10:42:10;21.30;99.30
19261;DHT22;75986;48.588;9.216;2024-03-17T10:44:42;21.30;99.10
19261;DHT22;75986;48.588;9.216;2024-03-17T10:47:20;21.30;98.90
19261;DHT22;75986;48.588;9.216;2024-03-17T10:49:51;21.30;98.80
19261;DHT22;75986;48.588;9.216;2024-03-17T10:52:22;21.30;98.80
19261;DHT22;75986;48.588;9.216;2024-03-17T10:54:53;21.20;98.70
19261;DHT22;75986;48.588;9.216;2024-03-17T10:57:29;21.30;98.60
19261;DHT22;75986;48.588;9.216;2024-03-17T11:00:04;21.30;98.50
19261;DHT22;75986;48.588;9.216;2024-03-17T11:02:35;21.30;98.40
19261;DHT22;75986;48.588;9.216;2024-03-17T11:05:11;21.30;98.40
19261;DHT22;75986;48.588;9.216;2024-03-17T11:07:44;21.20;98.30
19261;DHT22;75986;48.588;9.216;2024-03-17T11:10:20;21.20;98.20
19261;DHT22;75986;48.588;9.216;2024-03-17T11:12:50;21.20;98.10
19261;DHT22;75986;48.588;9.216;2024-03-17T11:15:38;21.20;98.10
19261;DHT22;75986;48.588;9.216;2024-03-17T11:18:34;21.20;98.10
19261;DHT22;75986;48.588;9.216;2024-03-17T11:23:59;21.20;97.90
19261;DHT22;75986;48.588;9.216;2024-03-17T11:26:30;21.30;98.00
19261;DHT22;75986;48.588;9.216;2024-03-17T11:29:00;21.30;97.70
19261;DHT22;75986;48.588;9.216;2024-03-17T11:31:45;21.20;97.60
19261;DHT22;75986;48.588;9.216;2024-03-17T11:34:31;21.20;97.50
19261;DHT22;75986;48.588;9.216;2024-03-17T11:37:03;21.20;97.60
19261;DHT22;75986;48.588;9.216;2024-03-17T11:39:51;21.20;97.40
19261;DHT22;75986;48.588;9.216;2024-03-17T11:42:25;21.20;97.40
19261;DHT22;75986;48.588;9.216;2024-03-17T11:45:00;21.30;97.30
19261;DHT22;75986;48.588;9.216;2024-03-17T11:47:37;21.20;97.10
19261;DHT22;75986;48.588;9.216;2024-03-17T11:50:08;21.20;97.10
19261;DHT22;75986;48.588;9.216;2024-03-17T11:52:38;21.20;96.90
19261;DHT22;75986;48.588;9.216;2024-03-17T11:55:17;21.20;96.80
19261;DHT22;75986;48.588;9.216;2024-03-17T11:57:45;21.20;96.80
19261;DHT22;75986;48.588;9.216;2024-03-17T12:00:20;21.30;96.80
19261;DHT22;75986;48.588;9.216;2024-03-17T12:02:52;21.20;96.60
19261;DHT22;75986;48.588;9.216;2024-03-17T12:05:23;21.20;96.30
19261;DHT22;75986;48.588;9.216;2024-03-17T12:07:50;21.30;96.50
19261;DHT22;75986;48.588;9.216;2024-03-17T12:10:21;21.30;96.40
19261;DHT22;75986;48.588;9.216;2024-03-17T12:12:47;21.30;96.40
19261;DHT22;75986;48.588;9.216;2024-03-17T12:15:18;21.30;96.20
19261;DHT22;75986;48.588;9.216;2024-03-17T12:17:55;21.30;96.30
19261;DHT22;75986;48.588;9.216;2024-03-17T12:20:26;21.30;96.10
19261;DHT22;75986;48.588;9.216;2024-03-17T12:22:55;21.30;96.00
19261;DHT22;75986;48.588;9.216;2024-03-17T12:25:24;21.30;96.30
19261;DHT22;75986;48.588;9.216;2024-03-17T12:27:55;21.30;96.00
19261;DHT22;75986;48.588;9.216;2024-03-17T12:30:22;21.20;96.00
19261;DHT22;75986;48.588;9.216;2024-03-17T12:32:54;21.30;95.90
19261;DHT22;75986;48.588;9.216;2024-03-17T12:35:21;21.20;95.80
19261;DHT22;75986;48.588;9.216;2024-03-17T12:37:51;21.20;95.70
19261;DHT22;75986;48.588;9.216;2024-03-17T12:40:22;21.20;95.70
19261;DHT22;75986;48.588;9.216;2024-03-17T12:42:51;21.30;95.70
19261;DHT22;75986;48.588;9.216;2024-03-17T12:45:21;21.30;95.50
19261;DHT22;75986;48.588;9.216;2024-03-17T12:47:54;21.30;95.50
19261;DHT22;75986;48.588;9.216;2024-03-17T12:50:21;21.30;95.50
19261;DHT22;75986;48.588;9.216;2024-03-17T12:52:54;21.30;95.40
19261;DHT22;75986;48.588;9.216;2024-03-17T12:55:22;21.30;95.40
19261;DHT22;75986;48.588;9.216;2024-03-17T12:58:08;21.30;95.30
19261;DHT22;75986;48.588;9.216;2024-03-17T13:00:57;21.30;95.30
19261;DHT22;75986;48.588;9.216;2024-03-17T13:03:31;21.30;95.30
19261;DHT22;75986;48.588;9.216;2024-03-17T13:06:01;21.30;95.30
19261;DHT22;75986;48.588;9.216;2024-03-17T13:08:32;21.30;95.20
19261;DHT22;75986;48.588;9.216;2024-03-17T13:11:03;21.30;95.20
19261;DHT22;75986;48.588;9.216;2024-03-17T13:13:35;21.30;95.20
19261;DHT22;75986;48.588;9.216;2024-03-17T13:16:05;21.30;95.20
19261;DHT22;75986;48.588;9.216;2024-03-17T13:18:37;21.30;95.30
19261;DHT22;75986;48.588;9.216;2024-03-17T13:21:07;21.30;95.30
19261;DHT22;75986;48.588;9.216;2024-03-17T13:23:36;21.40;95.30
19261;DHT22;75986;48.588;9.216;2024-03-17T13:26:05;21.40;95.30
19261;DHT22;75986;48.588;9.216;2024-03-17T13:28:34;21.40;95.30
19261;DHT22;75986;48.588;9.216;2024-03-17T13:31:03;21.40;95.40
19261;DHT22;75986;48.588;9.216;2024-03-17T13:33:33;21.40;95.30
19261;DHT22;75986;48.588;9.216;2024-03-17T13:36:04;21.40;95.30
19261;DHT22;75986;48.588;9.216;2024-03-17T13:38:34;21.40;95.40
19261;DHT22;75986;48.588;9.216;2024-03-17T13:41:04;21.40;95.40
19261;DHT22;75986;48.588;9.216;2024-03-17T13:43:33;21.40;95.50
19261;DHT22;75986;48.588;9.216;2024-03-17T13:46:03;21.40;95.50
19261;DHT22;75986;48.588;9.216;2024-03-17T13:48:32;21.40;95.50
19261;DHT22;75986;48.588;9.216;2024-03-17T13:51:04;21.40;95.60
19261;DHT22;75986;48.588;9.216;2024-03-17T13:53:34;21.40;95.60
19261;DHT22;75986;48.588;9.216;2024-03-17T13:56:04;21.40;95.60
19261;DHT22;75986;48.588;9.216;2024-03-17T13:58:34;21.40;95.60
19261;DHT22;75986;48.588;9.216;2024-03-17T14:01:03;21.40;95.70
19261;DHT22;75986;48.588;9.216;2024-03-17T14:03:33;21.40;95.70
19261;DHT22;75986;48.588;9.216;2024-03-17T14:06:05;21.40;95.70
19261;DHT22;75986;48.588;9.216;2024-03-17T14:08:35;21.40;95.70
19261;DHT22;75986;48.588;9.216;2024-03-17T14:11:04;21.40;95.70
19261;DHT22;75986;48.588;9.216;2024-03-17T14:13:34;21.40;95.80
19261;DHT22;75986;48.588;9.216;2024-03-17T14:16:04;21.40;95.70
19261;DHT22;75986;48.588;9.216;2024-03-17T14:18:33;21.40;95.80
19261;DHT22;75986;48.588;9.216;2024-03-17T14:21:05;21.40;95.80
19261;DHT22;75986;48.588;9.216;2024-03-17T14:23:34;21.40;95.80
19261;DHT22;75986;48.588;9.216;2024-03-17T14:26:03;21.40;95.80
19261;DHT22;75986;48.588;9.216;2024-03-17T14:28:33;21.40;95.80
19261;DHT22;75986;48.588;9.216;2024-03-17T14:31:03;21.40;95.90
19261;DHT22;75986;48.588;9.216;2024-03-17T14:33:32;21.40;95.90
19261;DHT22;75986;48.588;9.216;2024-03-17T14:36:02;21.40;95.90
19261;DHT22;75986;48.588;9.216;2024-03-17T14:38:35;21.40;95.90
19261;DHT22;75986;48.588;9.216;2024-03-17T14:41:04;21.40;96.00
19261;DHT22;75986;48.588;9.216;2024-03-17T14:43:33;21.40;96.00
19261;DHT22;75986;48.588;9.216;2024-03-17T14:46:04;21.40;96.00
19261;DHT22;75986;48.588;9.216;2024-03-17T14:48:36;21.40;96.00
19261;DHT22;75986;48.588;9.216;2024-03-17T14:51:06;21.40;96.10
19261;DHT22;75986;48.588;9.216;2024-03-17T14:53:38;21.40;96.10
19261;DHT22;75986;48.588;9.216;2024-03-17T14:56:14;21.40;96.10
19261;DHT22;75986;48.588;9.216;2024-03-17T14:58:45;21.40;96.20
19261;DHT22;75986;48.588;9.216;2024-03-17T15:01:17;21.40;96.20
19261;DHT22;75986;48.588;9.216;2024-03-17T15:03:46;21.40;96.20
19261;DHT22;75986;48.588;9.216;2024-03-17T15:06:17;21.40;96.20
19261;DHT22;75986;48.588;9.216;2024-03-17T15:08:49;21.40;96.20
19261;DHT22;75986;48.588;9.216;2024-03-17T15:11:18;21.40;96.30
19261;DHT22;75986;48.588;9.216;2024-03-17T15:13:48;21.30;96.60
19261;DHT22;75986;48.588;9.216;2024-03-17T15:16:17;21.40;96.30
19261;DHT22;75986;48.588;9.216;2024-03-17T15:18:47;21.40;96.30
19261;DHT22;75986;48.588;9.216;2024-03-17T15:21:16;21.40;96.40
19261;DHT22;75986;48.588;9.216;2024-03-17T15:23:45;21.30;96.40
19261;DHT22;75986;48.588;9.216;2024-03-17T15:26:17;21.30;96.40
19261;DHT22;75986;48.588;9.216;2024-03-17T15:28:47;21.30;96.40
19261;DHT22;75986;48.588;9.216;2024-03-17T15:31:17;21.30;96.40
19261;DHT22;75986;48.588;9.216;2024-03-17T15:33:50;21.30;96.40
19261;DHT22;75986;48.588;9.216;2024-03-17T15:36:20;21.30;96.50
19261;DHT22;75986;48.588;9.216;2024-03-17T15:38:50;21.30;96.50
19261;DHT22;75986;48.588;9.216;2024-03-17T15:41:22;21.30;96.50
19261;DHT22;75986;48.588;9.216;2024-03-17T15:43:51;21.30;96.50
19261;DHT22;75986;48.588;9.216;2024-03-17T15:46:21;21.30;96.50
19261;DHT22;75986;48.588;9.216;2024-03-17T15:48:50;21.30;96.60
19261;DHT22;75986;48.588;9.216;2024-03-17T15:51:19;21.30;96.60
19261;DHT22;75986;48.588;9.216;2024-03-17T15:53:48;21.30;96.60